createdAt,value
2023-05-24T00:00:19.528Z,17.07
2023-05-24T00:02:47.866Z,17.06
2023-05-24T00:05:15.674Z,17.05
2023-05-24T00:07:43.394Z,17.10
2023-05-24T00:10:11.833Z,17.24
2023-05-24T00:12:39.450Z,17.26
2023-05-24T00:15:07.720Z,16.84
2023-05-24T00:17:35.699Z,16.85
2023-05-24T00:20:05.718Z,16.78
2023-05-24T00:22:35.557Z,16.84
2023-05-24T00:25:04.052Z,16.87
2023-05-24T00:27:32.171Z,17.15
2023-05-24T00:30:00.396Z,17.03
2023-05-24T00:32:29.316Z,16.86
2023-05-24T00:34:57.724Z,16.90
2023-05-24T00:37:26.353Z,16.86
2023-05-24T00:39:54.002Z,16.82
2023-05-24T00:42:21.714Z,17.25
2023-05-24T00:44:49.660Z,17.66
2023-05-24T00:47:17.389Z,17.65
2023-05-24T00:49:46.912Z,17.65
2023-05-24T00:52:15.123Z,17.12
2023-05-24T00:54:43.185Z,16.62
2023-05-24T00:57:12.007Z,16.71
2023-05-24T00:59:40.496Z,16.94
2023-05-24T01:02:08.402Z,16.74
2023-05-24T01:04:36.097Z,16.50
2023-05-24T01:07:23.862Z,16.57
2023-05-24T01:10:03.727Z,16.48
2023-05-24T01:12:53.667Z,16.44
2023-05-24T01:15:31.529Z,16.40
2023-05-24T01:18:07.963Z,16.48
2023-05-24T01:20:36.841Z,16.53
2023-05-24T01:23:30.622Z,16.67
2023-05-24T01:26:16.669Z,16.77
2023-05-24T01:28:46.325Z,16.83
2023-05-24T01:31:15.656Z,16.75
2023-05-24T01:33:43.565Z,16.89
2023-05-24T01:36:11.607Z,16.78
2023-05-24T01:38:40.959Z,16.72
2023-05-24T01:41:18.510Z,16.65
2023-05-24T01:43:56.604Z,16.65
2023-05-24T01:46:36.244Z,16.74
2023-05-24T01:49:26.355Z,16.53
2023-05-24T01:51:56.896Z,16.56
2023-05-24T01:54:26.854Z,16.48
2023-05-24T01:56:56.108Z,16.36
2023-05-24T01:59:24.752Z,16.39
2023-05-24T02:01:53.364Z,16.37
2023-05-24T02:04:21.425Z,16.42
2023-05-24T02:06:49.107Z,16.35
2023-05-24T02:09:16.909Z,16.35
2023-05-24T02:11:44.943Z,16.36
2023-05-24T02:14:12.702Z,16.28
2023-05-24T02:16:40.371Z,16.27
2023-05-24T02:19:09.502Z,16.20
2023-05-24T02:21:37.146Z,16.18
2023-05-24T02:24:05.177Z,16.13
2023-05-24T02:26:33.714Z,16.08
2023-05-24T02:29:01.347Z,16.16
2023-05-24T02:31:29.104Z,16.10
2023-05-24T02:33:57.780Z,16.12
2023-05-24T02:36:25.465Z,16.00
2023-05-24T02:38:53.131Z,15.94
2023-05-24T02:41:21.078Z,15.95
2023-05-24T02:43:49.044Z,15.93
2023-05-24T02:46:16.678Z,15.91
2023-05-24T02:48:44.816Z,15.94
2023-05-24T02:51:12.577Z,15.79
2023-05-24T02:53:40.254Z,15.89
2023-05-24T02:56:08.192Z,16.08
2023-05-24T02:58:36.964Z,15.88
2023-05-24T03:01:04.972Z,15.85
2023-05-24T03:03:33.120Z,15.95
2023-05-24T03:06:00.725Z,15.86
2023-05-24T03:08:28.400Z,15.87
2023-05-24T03:10:56.479Z,15.98
2023-05-24T03:13:24.174Z,16.02
2023-05-24T03:15:51.939Z,16.01
2023-05-24T03:18:19.906Z,16.01
2023-05-24T03:20:47.769Z,16.15
2023-05-24T03:23:15.479Z,16.20
2023-05-24T03:25:43.644Z,16.24
2023-05-24T03:28:11.345Z,16.17
2023-05-24T03:30:39.065Z,16.29
2023-05-24T03:33:07.225Z,16.12
2023-05-24T03:35:35.049Z,16.16
2023-05-24T03:38:02.909Z,16.14
2023-05-24T03:40:31.545Z,16.14
2023-05-24T03:43:00.546Z,16.10
2023-05-24T03:45:38.566Z,16.15
2023-05-24T03:48:07.891Z,16.07
2023-05-24T03:50:36.018Z,16.14
2023-05-24T03:53:03.958Z,16.11
2023-05-24T03:55:32.113Z,16.12
2023-05-24T03:57:59.813Z,16.14
2023-05-24T04:00:27.605Z,16.14
2023-05-24T04:02:55.679Z,16.14
2023-05-24T04:05:23.587Z,16.09
2023-05-24T04:07:51.318Z,16.27
2023-05-24T04:10:19.607Z,16.20
2023-05-24T04:12:47.274Z,16.42
2023-05-24T04:15:15.002Z,16.41
2023-05-24T04:17:44.289Z,16.47
2023-05-24T04:20:12.659Z,16.51
2023-05-24T04:22:40.469Z,16.49
2023-05-24T04:25:08.935Z,16.55
2023-05-24T04:27:37.406Z,16.60
2023-05-24T04:30:06.028Z,16.66
2023-05-24T04:32:36.601Z,16.66
2023-05-24T04:35:05.273Z,16.42
2023-05-24T04:37:33.806Z,16.50
2023-05-24T04:40:01.778Z,16.48
2023-05-24T04:42:29.561Z,16.46
2023-05-24T04:44:57.719Z,16.61
2023-05-24T04:47:25.731Z,16.68
2023-05-24T04:49:53.387Z,16.46
2023-05-24T04:52:21.101Z,16.63
2023-05-24T04:54:49.253Z,16.60
2023-05-24T04:57:17.270Z,16.70
2023-05-24T04:59:45.021Z,16.84
2023-05-24T05:02:13.092Z,16.79
2023-05-24T05:04:40.951Z,16.73
2023-05-24T05:07:08.618Z,16.71
2023-05-24T05:09:36.830Z,16.77
2023-05-24T05:12:05.050Z,17.17
2023-05-24T05:14:32.735Z,16.94
2023-05-24T05:17:00.585Z,16.97
2023-05-24T05:19:28.219Z,17.03
2023-05-24T05:21:55.936Z,17.18
2023-05-24T05:24:23.908Z,17.10
2023-05-24T05:26:51.650Z,17.11
2023-05-24T05:29:19.291Z,17.28
2023-05-24T05:31:47.270Z,17.42
2023-05-24T05:34:14.991Z,17.45
2023-05-24T05:36:42.635Z,17.31
2023-05-24T05:39:10.678Z,17.53
2023-05-24T05:41:42.572Z,17.60
2023-05-24T05:44:12.469Z,17.64
2023-05-24T05:46:40.248Z,17.62
2023-05-24T05:49:07.903Z,17.85
2023-05-24T05:51:35.795Z,17.99
2023-05-24T05:54:03.698Z,17.91
2023-05-24T05:56:31.451Z,18.07
2023-05-24T05:58:59.443Z,18.09
2023-05-24T06:01:27.075Z,17.98
2023-05-24T06:03:55.281Z,18.12
2023-05-24T06:06:23.024Z,18.32
2023-05-24T06:08:50.689Z,18.36
2023-05-24T06:11:18.584Z,18.40
2023-05-24T06:13:46.312Z,18.57
2023-05-24T06:16:13.971Z,18.62
2023-05-24T06:18:50.078Z,18.54
2023-05-24T06:21:18.090Z,18.58
2023-05-24T06:23:46.061Z,18.57
2023-05-24T06:26:13.820Z,18.44
2023-05-24T06:28:41.569Z,18.61
2023-05-24T06:31:09.710Z,18.52
2023-05-24T06:33:38.287Z,18.45
2023-05-24T06:36:06.091Z,18.42
2023-05-24T06:38:34.190Z,18.38
2023-05-24T06:41:02.004Z,18.46
2023-05-24T06:43:29.754Z,18.47
2023-05-24T06:45:57.671Z,18.60
2023-05-24T06:48:25.399Z,18.70
2023-05-24T06:50:53.245Z,18.94
2023-05-24T06:53:21.206Z,19.01
2023-05-24T06:55:49.013Z,19.09
2023-05-24T06:58:16.655Z,19.27
2023-05-24T07:00:44.849Z,19.22
2023-05-24T07:03:13.292Z,19.32
2023-05-24T07:05:40.922Z,19.45
2023-05-24T07:08:08.884Z,19.64
2023-05-24T07:10:36.595Z,19.64
2023-05-24T07:13:04.456Z,19.98
2023-05-24T07:15:32.369Z,19.25
2023-05-24T07:18:00.114Z,19.38
2023-05-24T07:20:27.885Z,19.38
2023-05-24T07:22:55.906Z,19.33
2023-05-24T07:25:23.748Z,19.47
2023-05-24T07:27:51.508Z,20.36
2023-05-24T07:30:30.984Z,20.75
2023-05-24T07:33:02.703Z,19.93
2023-05-24T07:35:30.708Z,20.02
2023-05-24T07:37:58.327Z,20.11
2023-05-24T07:40:26.033Z,20.01
2023-05-24T07:42:53.932Z,20.24
2023-05-24T07:45:21.666Z,20.29
2023-05-24T07:47:49.440Z,20.22
2023-05-24T07:50:17.780Z,20.50
2023-05-24T07:52:45.477Z,20.33
2023-05-24T07:55:13.594Z,20.21
2023-05-24T07:57:41.576Z,19.90
2023-05-24T08:00:09.756Z,20.27
2023-05-24T08:02:39.219Z,20.95
2023-05-24T08:05:07.441Z,20.98
2023-05-24T08:07:35.187Z,21.13
2023-05-24T08:10:03.285Z,21.39
2023-05-24T08:12:31.246Z,21.48
2023-05-24T08:14:59.092Z,21.60
2023-05-24T08:17:27.373Z,21.41
2023-05-24T08:19:55.329Z,21.82
2023-05-24T08:22:23.085Z,21.63
2023-05-24T08:24:50.766Z,21.83
2023-05-24T08:27:18.622Z,21.79
2023-05-24T08:29:46.246Z,21.92
2023-05-24T08:32:14.068Z,21.84
2023-05-24T08:34:42.191Z,22.11
2023-05-24T08:37:10.764Z,22.00
2023-05-24T08:39:38.881Z,22.09
2023-05-24T08:42:09.509Z,22.26
2023-05-24T08:44:42.060Z,22.32
2023-05-24T08:47:10.392Z,22.72
2023-05-24T08:49:38.166Z,22.58
2023-05-24T08:52:05.948Z,22.62
2023-05-24T08:54:36.659Z,22.71
2023-05-24T08:57:05.049Z,23.15
2023-05-24T08:59:32.865Z,23.05
2023-05-24T09:02:01.231Z,23.45
2023-05-24T09:04:29.308Z,22.70
2023-05-24T09:06:57.664Z,23.00
2023-05-24T09:09:27.494Z,22.70
2023-05-24T09:11:57.225Z,22.96
2023-05-24T09:14:25.394Z,22.73
2023-05-24T09:16:53.766Z,22.47
2023-05-24T09:19:21.477Z,22.73
2023-05-24T09:21:49.858Z,22.55
2023-05-24T09:24:17.593Z,22.79
2023-05-24T09:26:45.201Z,22.08
2023-05-24T09:29:13.151Z,21.99
2023-05-24T09:31:40.931Z,22.20
2023-05-24T09:34:14.976Z,22.10
2023-05-24T09:36:46.191Z,22.60
2023-05-24T09:39:14.000Z,23.60
2023-05-24T09:41:43.467Z,23.81
2023-05-24T09:44:13.779Z,23.85
2023-05-24T09:46:41.593Z,23.77
2023-05-24T09:49:09.329Z,24.16
2023-05-24T09:51:38.207Z,24.51
2023-05-24T09:54:06.269Z,24.32
2023-05-24T09:56:34.271Z,24.32
2023-05-24T09:59:08.954Z,24.40
2023-05-24T10:01:36.700Z,24.37
2023-05-24T10:04:07.905Z,23.61
2023-05-24T10:06:37.481Z,23.69
2023-05-24T10:09:06.451Z,23.81
2023-05-24T10:11:35.916Z,24.49
2023-05-24T10:14:05.208Z,24.77
2023-05-24T10:16:33.457Z,24.26
2023-05-24T10:19:01.673Z,23.87
2023-05-24T10:21:31.266Z,23.88
2023-05-24T10:24:01.387Z,23.49
2023-05-24T10:26:31.738Z,23.66
2023-05-24T10:29:04.921Z,23.94
2023-05-24T10:31:36.751Z,24.04
2023-05-24T10:34:08.720Z,24.44
2023-05-24T10:36:37.699Z,24.73
2023-05-24T10:39:09.095Z,24.87
2023-05-24T10:41:40.622Z,25.23
2023-05-24T10:44:12.527Z,25.09
2023-05-24T10:47:15.522Z,25.10
2023-05-24T10:49:55.998Z,25.29
2023-05-24T10:52:37.077Z,25.64
2023-05-24T10:55:09.866Z,25.50
2023-05-24T10:57:39.092Z,25.52
2023-05-24T11:03:00.452Z,25.95
2023-05-24T11:05:35.580Z,26.07
2023-05-24T11:08:03.430Z,25.39
2023-05-24T11:10:31.948Z,25.36
2023-05-24T11:13:00.850Z,25.48
2023-05-24T11:15:32.300Z,25.93
2023-05-24T11:18:09.296Z,26.30
2023-05-24T11:20:37.485Z,27.03
2023-05-24T11:23:06.203Z,27.16
2023-05-24T11:25:33.890Z,26.75
2023-05-24T11:28:01.955Z,26.37
2023-05-24T11:30:32.793Z,26.37
2023-05-24T11:33:00.451Z,26.31
2023-05-24T11:35:28.212Z,26.85
2023-05-24T11:37:59.383Z,27.40
2023-05-24T11:40:27.097Z,27.29
2023-05-24T11:42:54.901Z,27.48
2023-05-24T11:45:22.929Z,27.62
2023-05-24T11:47:50.768Z,27.15
2023-05-24T11:50:25.265Z,26.65
2023-05-24T11:52:54.661Z,26.12
2023-05-24T11:55:25.394Z,26.20
2023-05-24T11:57:58.220Z,26.48
2023-05-24T12:00:27.087Z,26.97
2023-05-24T12:02:58.535Z,26.97
2023-05-24T12:05:26.380Z,27.38
2023-05-24T12:08:09.287Z,27.77
2023-05-24T12:10:39.526Z,27.13
2023-05-24T12:13:19.373Z,27.41
2023-05-24T12:15:54.066Z,26.78
2023-05-24T12:18:25.491Z,27.14
2023-05-24T12:20:53.898Z,26.53
2023-05-24T12:23:24.288Z,25.77
2023-05-24T12:26:00.610Z,26.90
2023-05-24T12:28:33.765Z,26.89
2023-05-24T12:31:05.423Z,26.89
2023-05-24T12:33:33.624Z,26.50
2023-05-24T12:36:01.492Z,25.42
2023-05-24T12:38:31.043Z,26.10
2023-05-24T12:41:12.178Z,26.35
2023-05-24T12:43:42.480Z,26.21
2023-05-24T12:46:10.546Z,26.04
2023-05-24T12:48:38.224Z,24.66
2023-05-24T12:51:06.321Z,25.19
2023-05-24T12:53:34.308Z,25.01
2023-05-24T12:56:02.130Z,24.63
2023-05-24T12:58:29.839Z,24.83
2023-05-24T13:00:58.022Z,24.27
2023-05-24T13:03:25.760Z,24.44
2023-05-24T13:05:53.615Z,24.88
2023-05-24T13:08:21.803Z,24.62
2023-05-24T13:10:49.570Z,24.61
2023-05-24T13:13:17.155Z,24.48
2023-05-24T13:15:45.188Z,24.54
2023-05-24T13:18:13.199Z,24.41
2023-05-24T13:20:41.256Z,24.54
2023-05-24T13:23:09.388Z,24.69
2023-05-24T13:25:37.064Z,24.43
2023-05-24T13:28:08.162Z,24.20
2023-05-24T13:30:36.675Z,23.86
2023-05-24T13:33:04.581Z,24.01
2023-05-24T13:37:59.844Z,24.35
2023-05-24T13:40:27.585Z,24.01
2023-05-24T13:42:56.784Z,24.43
2023-05-24T13:45:25.073Z,23.99
2023-05-24T13:47:52.845Z,24.43
2023-05-24T13:50:20.569Z,25.37
2023-05-24T13:52:48.500Z,25.51
2023-05-24T13:55:16.280Z,25.72
2023-05-24T13:57:51.704Z,25.58
2023-05-24T14:00:20.634Z,25.95
2023-05-24T14:02:49.066Z,25.83
2023-05-24T14:07:47.565Z,26.09
2023-05-24T14:10:16.603Z,26.00
2023-05-24T14:12:45.347Z,25.46
2023-05-24T14:15:13.634Z,25.69
2023-05-24T14:17:41.664Z,25.58
2023-05-24T14:20:09.514Z,25.66
2023-05-24T14:22:38.092Z,25.26
2023-05-24T14:25:07.595Z,24.77
2023-05-24T14:27:35.276Z,24.73
2023-05-24T14:30:03.263Z,24.08
2023-05-24T14:32:31.299Z,23.86
2023-05-24T14:34:59.005Z,23.72
2023-05-24T14:37:27.751Z,23.89
2023-05-24T14:39:55.847Z,23.65
2023-05-24T14:42:23.556Z,23.82
2023-05-24T14:44:51.253Z,23.92
2023-05-24T14:47:19.169Z,23.76
2023-05-24T14:49:46.839Z,23.58
2023-05-24T14:52:14.484Z,23.46
2023-05-24T14:54:42.513Z,23.60
2023-05-24T14:57:10.203Z,23.86
2023-05-24T14:59:37.954Z,23.85
2023-05-24T15:02:06.282Z,24.53
2023-05-24T15:04:33.902Z,25.21
2023-05-24T15:07:01.579Z,25.55
2023-05-24T15:09:29.453Z,25.28
2023-05-24T15:11:57.194Z,25.17
2023-05-24T15:14:24.946Z,25.03
2023-05-24T15:16:53.061Z,24.86
2023-05-24T15:19:20.672Z,24.75
2023-05-24T15:21:48.417Z,24.60
2023-05-24T15:24:16.708Z,25.43
2023-05-24T15:26:44.467Z,25.42
2023-05-24T15:29:12.262Z,24.80
2023-05-24T15:31:40.341Z,24.93
2023-05-24T15:34:07.986Z,25.08
2023-05-24T15:36:35.782Z,25.07
2023-05-24T15:39:04.308Z,24.86
2023-05-24T15:41:32.469Z,25.00
2023-05-24T15:44:00.243Z,24.65
2023-05-24T15:46:28.606Z,24.66
2023-05-24T15:48:56.214Z,25.02
2023-05-24T15:52:01.847Z,25.25
2023-05-24T15:54:11.878Z,24.82
2023-05-24T15:56:39.587Z,25.04
2023-05-24T15:59:07.218Z,24.68
2023-05-24T16:01:35.498Z,24.56
2023-05-24T16:04:03.756Z,24.47
2023-05-24T16:06:31.513Z,24.24
2023-05-24T16:08:59.582Z,24.60
2023-05-24T16:11:27.585Z,24.55
2023-05-24T16:13:55.356Z,24.40
2023-05-24T16:16:23.073Z,24.58
2023-05-24T16:18:51.076Z,24.46
2023-05-24T16:21:18.768Z,24.45
2023-05-24T16:23:46.426Z,24.00
2023-05-24T16:26:14.430Z,24.34
2023-05-24T16:28:42.190Z,24.03
2023-05-24T16:31:09.783Z,23.84
2023-05-24T16:33:37.832Z,23.53
2023-05-24T16:36:05.618Z,23.35
2023-05-24T16:38:33.361Z,23.24
2023-05-24T16:41:01.436Z,23.04
2023-05-24T16:43:30.378Z,22.72
2023-05-24T16:46:00.001Z,22.85
2023-05-24T16:48:28.783Z,22.94
2023-05-24T16:50:59.680Z,22.63
2023-05-24T16:53:27.659Z,22.32
2023-05-24T16:55:56.338Z,22.40
2023-05-24T16:58:25.262Z,22.34
2023-05-24T17:00:52.920Z,22.79
2023-05-24T17:03:22.114Z,22.39
2023-05-24T17:05:49.940Z,21.97
2023-05-24T17:08:17.539Z,21.79
2023-05-24T17:10:45.517Z,22.24
2023-05-24T17:13:13.296Z,22.44
2023-05-24T17:15:40.904Z,22.76
2023-05-24T17:18:09.027Z,22.13
2023-05-24T17:20:36.878Z,22.08
2023-05-24T17:23:04.759Z,22.24
2023-05-24T17:25:32.810Z,22.02
2023-05-24T17:28:00.555Z,21.91
2023-05-24T17:30:28.154Z,21.55
2023-05-24T17:32:56.227Z,21.48
2023-05-24T17:35:23.972Z,21.47
2023-05-24T17:37:51.667Z,21.52
2023-05-24T17:40:19.583Z,21.43
2023-05-24T17:42:47.279Z,21.34
2023-05-24T17:45:15.254Z,21.29
2023-05-24T17:47:44.415Z,21.31
2023-05-24T17:50:12.254Z,21.22
2023-05-24T17:52:42.527Z,21.17
2023-05-24T17:55:10.523Z,21.25
2023-05-24T17:57:38.228Z,21.16
2023-05-24T18:00:07.079Z,20.97
2023-05-24T18:02:35.148Z,20.93
2023-05-24T18:05:03.164Z,20.88
2023-05-24T18:07:30.857Z,20.82
2023-05-24T18:10:00.352Z,21.33
2023-05-24T18:12:28.655Z,21.24
2023-05-24T18:14:56.426Z,21.01
2023-05-24T18:17:24.147Z,21.45
2023-05-24T18:19:52.166Z,21.47
2023-05-24T18:22:19.803Z,21.24
2023-05-24T18:24:47.531Z,21.31
2023-05-24T18:27:15.561Z,20.61
2023-05-24T18:29:43.399Z,20.37
2023-05-24T18:32:11.208Z,20.26
2023-05-24T18:34:39.310Z,20.87
2023-05-24T18:37:06.937Z,21.02
2023-05-24T18:39:35.507Z,20.92
2023-05-24T18:42:03.765Z,20.62
2023-05-24T18:44:31.446Z,20.51
2023-05-24T18:46:59.127Z,20.86
2023-05-24T18:49:27.115Z,20.82
2023-05-24T18:51:54.819Z,20.71
2023-05-24T18:54:22.520Z,20.54
2023-05-24T18:56:50.447Z,20.48
2023-05-24T18:59:18.074Z,20.50
2023-05-24T19:01:45.867Z,20.41
2023-05-24T19:04:13.973Z,20.38
2023-05-24T19:06:41.650Z,20.63
2023-05-24T19:09:09.251Z,20.16
2023-05-24T19:11:37.217Z,19.97
2023-05-24T19:14:05.020Z,20.23
2023-05-24T19:16:32.753Z,19.93
2023-05-24T19:19:00.764Z,19.90
2023-05-24T19:21:28.371Z,19.88
2023-05-24T19:23:56.058Z,20.00
2023-05-24T19:26:24.063Z,20.02
2023-05-24T19:28:51.785Z,19.49
2023-05-24T19:31:20.646Z,19.19
2023-05-24T19:34:00.078Z,19.14
2023-05-24T19:36:29.257Z,19.09
2023-05-24T19:38:57.206Z,19.14
2023-05-24T19:41:24.953Z,19.14
2023-05-24T19:43:54.398Z,19.12
2023-05-24T19:46:23.719Z,19.11
2023-05-24T19:48:51.679Z,19.13
2023-05-24T19:51:19.548Z,19.10
2023-05-24T19:53:47.510Z,19.05
2023-05-24T19:56:15.242Z,19.21
2023-05-24T19:58:42.840Z,19.19
2023-05-24T20:01:10.880Z,19.33
2023-05-24T20:03:39.054Z,19.43
2023-05-24T20:06:06.822Z,19.39
2023-05-24T20:08:34.559Z,19.27
2023-05-24T20:11:03.333Z,19.37
2023-05-24T20:13:30.980Z,19.07
2023-05-24T20:15:58.744Z,19.27
2023-05-24T20:18:26.833Z,19.38
2023-05-24T20:20:54.478Z,19.24
2023-05-24T20:23:22.157Z,19.14
2023-05-24T20:25:50.083Z,19.19
2023-05-24T20:28:29.472Z,19.22
2023-05-24T20:30:58.315Z,19.82
2023-05-24T20:33:26.000Z,19.25
2023-05-24T20:35:53.745Z,19.00
2023-05-24T20:38:22.123Z,19.04
2023-05-24T20:40:49.873Z,18.93
2023-05-24T20:43:17.572Z,18.99
2023-05-24T20:45:45.660Z,18.81
2023-05-24T20:48:13.696Z,18.92
2023-05-24T20:50:41.932Z,18.93
2023-05-24T20:53:09.851Z,18.80
2023-05-24T20:55:37.661Z,18.70
2023-05-24T20:58:05.602Z,18.69
2023-05-24T21:00:33.626Z,18.70
2023-05-24T21:03:01.848Z,18.63
2023-05-24T21:05:29.923Z,18.65
2023-05-24T21:07:57.840Z,18.79
2023-05-24T21:10:25.505Z,18.62
2023-05-24T21:12:53.224Z,18.83
2023-05-24T21:15:21.239Z,18.72
2023-05-24T21:17:49.008Z,18.70
2023-05-24T21:20:16.838Z,18.70
2023-05-24T21:22:44.729Z,18.90
2023-05-24T21:25:12.424Z,18.75
2023-05-24T21:27:40.248Z,18.83
2023-05-24T21:30:08.816Z,18.72
2023-05-24T21:32:36.511Z,18.57
2023-05-24T21:35:04.850Z,18.55
2023-05-24T21:37:32.743Z,18.58
2023-05-24T21:40:00.518Z,18.53
2023-05-24T21:42:28.239Z,18.52
2023-05-24T21:44:56.185Z,18.45
2023-05-24T21:47:23.903Z,18.54
2023-05-24T21:49:51.963Z,18.52
2023-05-24T21:52:19.882Z,18.54
2023-05-24T21:54:47.657Z,18.65
2023-05-24T21:57:15.355Z,18.54
2023-05-24T21:59:43.251Z,18.49
2023-05-24T22:02:11.049Z,18.64
2023-05-24T22:04:41.821Z,18.67
2023-05-24T22:07:09.625Z,18.60
2023-05-24T22:09:37.305Z,18.50
2023-05-24T22:12:05.915Z,18.53
2023-05-24T22:14:33.626Z,18.49
2023-05-24T22:17:01.299Z,18.41
2023-05-24T22:19:39.416Z,18.36
2023-05-24T22:22:08.712Z,18.45
2023-05-24T22:24:36.749Z,18.33
2023-05-24T22:27:05.114Z,18.37
2023-05-24T22:29:32.793Z,18.16
2023-05-24T22:32:00.716Z,18.17
2023-05-24T22:34:29.000Z,18.07
2023-05-24T22:36:56.846Z,18.14
2023-05-24T22:39:25.088Z,18.15
2023-05-24T22:41:53.441Z,18.06
2023-05-24T22:44:21.226Z,18.14
2023-05-24T22:46:49.312Z,18.00
2023-05-24T22:49:17.045Z,17.98
2023-05-24T22:51:48.749Z,18.08
2023-05-24T22:54:17.282Z,17.96
2023-05-24T22:56:46.073Z,17.97
2023-05-24T22:59:13.631Z,18.03
2023-05-24T23:01:41.619Z,18.01
2023-05-24T23:04:20.427Z,18.01
2023-05-24T23:06:49.959Z,17.93
2023-05-24T23:09:17.723Z,17.88
2023-05-24T23:11:45.581Z,17.93
2023-05-24T23:14:13.491Z,17.85
2023-05-24T23:16:41.150Z,17.79
2023-05-24T23:19:08.835Z,17.77
2023-05-24T23:21:36.809Z,17.74
2023-05-24T23:24:04.777Z,17.80
2023-05-24T23:26:32.512Z,17.88
2023-05-24T23:29:00.545Z,17.94
2023-05-24T23:31:28.286Z,17.86
2023-05-24T23:33:56.011Z,17.88
2023-05-24T23:36:23.968Z,17.73
2023-05-24T23:38:51.620Z,17.61
2023-05-24T23:41:19.255Z,17.68
2023-05-24T23:43:47.276Z,17.75
2023-05-24T23:46:17.325Z,17.74
2023-05-24T23:48:45.034Z,17.90
2023-05-24T23:51:13.062Z,17.86
2023-05-24T23:53:40.802Z,17.69
2023-05-24T23:56:08.468Z,17.82
2023-05-24T23:58:36.472Z,17.71
